sensor_id;sensor_type;location;lat;lon;timestamp;P1;durP1;ratioP1;P2;durP2;ratioP2
74833;SDS011;63361;52.384;20.930;2023-07-08T00:00:36;10.75;;;5.57;;
74833;SDS011;63361;52.384;20.930;2023-07-08T00:03:01;12.17;;;5.33;;
74833;SDS011;63361;52.384;20.930;2023-07-08T00:05:26;12.87;;;6.03;;
74833;SDS011;63361;52.384;20.930;2023-07-08T00:07:51;10.33;;;6.10;;
74833;SDS011;63361;52.384;20.930;2023-07-08T00:10:21;9.60;;;6.27;;
74833;SDS011;63361;52.384;20.930;2023-07-08T00:12:47;12.00;;;6.22;;
74833;SDS011;63361;52.384;20.930;2023-07-08T00:15:13;9.50;;;5.97;;
74833;SDS011;63361;52.384;20.930;2023-07-08T00:17:38;8.97;;;5.83;;
74833;SDS011;63361;52.384;20.930;2023-07-08T00:20:23;9.53;;;6.20;;
74833;SDS011;63361;52.384;20.930;2023-07-08T00:22:53;11.00;;;6.30;;
74833;SDS011;63361;52.384;20.930;2023-07-08T00:25:19;10.90;;;6.17;;
74833;SDS011;63361;52.384;20.930;2023-07-08T00:27:45;10.60;;;6.30;;
74833;SDS011;63361;52.384;20.930;2023-07-08T00:30:14;13.37;;;6.73;;
74833;SDS011;63361;52.384;20.930;2023-07-08T00:32:42;9.15;;;5.57;;
74833;SDS011;63361;52.384;20.930;2023-07-08T00:35:07;11.83;;;6.43;;
74833;SDS011;63361;52.384;20.930;2023-07-08T00:37:32;11.37;;;5.60;;
74833;SDS011;63361;52.384;20.930;2023-07-08T00:39:57;12.23;;;6.90;;
74833;SDS011;63361;52.384;20.930;2023-07-08T00:42:23;13.00;;;6.83;;
74833;SDS011;63361;52.384;20.930;2023-07-08T00:44:49;11.88;;;6.75;;
74833;SDS011;63361;52.384;20.930;2023-07-08T00:47:14;13.10;;;6.67;;
74833;SDS011;63361;52.384;20.930;2023-07-08T00:49:42;12.53;;;7.00;;
74833;SDS011;63361;52.384;20.930;2023-07-08T00:52:18;10.60;;;6.68;;
74833;SDS011;63361;52.384;20.930;2023-07-08T00:54:44;10.20;;;6.55;;
74833;SDS011;63361;52.384;20.930;2023-07-08T00:57:09;12.63;;;6.33;;
74833;SDS011;63361;52.384;20.930;2023-07-08T00:59:37;10.48;;;6.38;;
74833;SDS011;63361;52.384;20.930;2023-07-08T01:02:04;11.47;;;6.10;;
74833;SDS011;63361;52.384;20.930;2023-07-08T01:04:49;9.60;;;6.03;;
74833;SDS011;63361;52.384;20.930;2023-07-08T01:07:15;13.50;;;6.82;;
74833;SDS011;63361;52.384;20.930;2023-07-08T01:09:46;10.48;;;6.75;;
74833;SDS011;63361;52.384;20.930;2023-07-08T01:12:15;10.43;;;6.40;;
74833;SDS011;63361;52.384;20.930;2023-07-08T01:14:41;9.53;;;5.93;;
74833;SDS011;63361;52.384;20.930;2023-07-08T01:17:07;11.50;;;6.75;;
74833;SDS011;63361;52.384;20.930;2023-07-08T01:19:32;11.07;;;5.97;;
74833;SDS011;63361;52.384;20.930;2023-07-08T01:24:26;12.00;;;6.67;;
74833;SDS011;63361;52.384;20.930;2023-07-08T01:26:52;12.27;;;7.05;;
74833;SDS011;63361;52.384;20.930;2023-07-08T01:29:18;13.48;;;7.03;;
74833;SDS011;63361;52.384;20.930;2023-07-08T01:31:43;12.63;;;7.10;;
74833;SDS011;63361;52.384;20.930;2023-07-08T01:34:13;13.02;;;7.07;;
74833;SDS011;63361;52.384;20.930;2023-07-08T01:36:40;11.25;;;7.43;;
74833;SDS011;63361;52.384;20.930;2023-07-08T01:39:10;11.07;;;6.80;;
74833;SDS011;63361;52.384;20.930;2023-07-08T01:41:35;11.85;;;6.78;;
74833;SDS011;63361;52.384;20.930;2023-07-08T01:44:00;9.27;;;6.30;;
74833;SDS011;63361;52.384;20.930;2023-07-08T01:46:25;8.67;;;6.30;;
74833;SDS011;63361;52.384;20.930;2023-07-08T01:48:53;12.80;;;7.07;;
74833;SDS011;63361;52.384;20.930;2023-07-08T01:51:19;12.77;;;7.43;;
74833;SDS011;63361;52.384;20.930;2023-07-08T01:53:44;11.50;;;7.13;;
74833;SDS011;63361;52.384;20.930;2023-07-08T01:56:11;11.90;;;7.20;;
74833;SDS011;63361;52.384;20.930;2023-07-08T01:58:36;10.88;;;6.68;;
74833;SDS011;63361;52.384;20.930;2023-07-08T02:01:02;12.30;;;6.87;;
74833;SDS011;63361;52.384;20.930;2023-07-08T02:03:27;11.80;;;6.77;;
74833;SDS011;63361;52.384;20.930;2023-07-08T02:05:52;10.47;;;7.10;;
74833;SDS011;63361;52.384;20.930;2023-07-08T02:08:18;11.93;;;7.23;;
74833;SDS011;63361;52.384;20.930;2023-07-08T02:10:44;9.93;;;6.75;;
74833;SDS011;63361;52.384;20.930;2023-07-08T02:13:10;12.88;;;7.20;;
74833;SDS011;63361;52.384;20.930;2023-07-08T02:15:35;11.70;;;7.00;;
74833;SDS011;63361;52.384;20.930;2023-07-08T02:18:00;10.57;;;6.77;;
74833;SDS011;63361;52.384;20.930;2023-07-08T02:20:25;10.87;;;7.37;;
74833;SDS011;63361;52.384;20.930;2023-07-08T02:22:51;11.33;;;6.80;;
74833;SDS011;63361;52.384;20.930;2023-07-08T02:25:16;10.77;;;7.27;;
74833;SDS011;63361;52.384;20.930;2023-07-08T02:27:42;10.40;;;6.67;;
74833;SDS011;63361;52.384;20.930;2023-07-08T02:30:07;12.27;;;6.95;;
74833;SDS011;63361;52.384;20.930;2023-07-08T02:32:33;12.43;;;6.60;;
74833;SDS011;63361;52.384;20.930;2023-07-08T02:35:00;10.43;;;6.90;;
74833;SDS011;63361;52.384;20.930;2023-07-08T02:37:26;10.00;;;6.53;;
74833;SDS011;63361;52.384;20.930;2023-07-08T02:39:51;9.27;;;6.27;;
74833;SDS011;63361;52.384;20.930;2023-07-08T02:42:16;10.33;;;6.93;;
74833;SDS011;63361;52.384;20.930;2023-07-08T02:44:41;11.77;;;6.77;;
74833;SDS011;63361;52.384;20.930;2023-07-08T02:47:06;12.47;;;6.60;;
74833;SDS011;63361;52.384;20.930;2023-07-08T02:49:32;14.87;;;6.67;;
74833;SDS011;63361;52.384;20.930;2023-07-08T02:51:57;10.33;;;6.60;;
74833;SDS011;63361;52.384;20.930;2023-07-08T02:54:22;11.53;;;6.20;;
74833;SDS011;63361;52.384;20.930;2023-07-08T02:56:47;9.17;;;5.70;;
74833;SDS011;63361;52.384;20.930;2023-07-08T02:59:12;11.77;;;6.37;;
74833;SDS011;63361;52.384;20.930;2023-07-08T03:01:38;9.20;;;5.73;;
74833;SDS011;63361;52.384;20.930;2023-07-08T03:04:10;10.13;;;6.07;;
74833;SDS011;63361;52.384;20.930;2023-07-08T03:06:38;10.43;;;6.43;;
74833;SDS011;63361;52.384;20.930;2023-07-08T03:09:03;9.75;;;6.45;;
74833;SDS011;63361;52.384;20.930;2023-07-08T03:11:29;10.27;;;6.80;;
74833;SDS011;63361;52.384;20.930;2023-07-08T03:13:54;9.73;;;6.28;;
74833;SDS011;63361;52.384;20.930;2023-07-08T03:16:19;10.67;;;6.70;;
74833;SDS011;63361;52.384;20.930;2023-07-08T03:18:45;10.13;;;6.40;;
74833;SDS011;63361;52.384;20.930;2023-07-08T03:21:14;12.03;;;6.90;;
74833;SDS011;63361;52.384;20.930;2023-07-08T03:23:40;10.95;;;6.03;;
74833;SDS011;63361;52.384;20.930;2023-07-08T03:26:06;9.45;;;5.85;;
74833;SDS011;63361;52.384;20.930;2023-07-08T03:28:31;10.80;;;6.50;;
74833;SDS011;63361;52.384;20.930;2023-07-08T03:30:56;9.77;;;6.10;;
74833;SDS011;63361;52.384;20.930;2023-07-08T03:33:21;9.07;;;5.93;;
74833;SDS011;63361;52.384;20.930;2023-07-08T03:35:47;11.57;;;6.10;;
74833;SDS011;63361;52.384;20.930;2023-07-08T03:38:12;10.03;;;6.73;;
74833;SDS011;63361;52.384;20.930;2023-07-08T03:40:37;9.63;;;6.03;;
74833;SDS011;63361;52.384;20.930;2023-07-08T03:43:02;11.57;;;6.33;;
74833;SDS011;63361;52.384;20.930;2023-07-08T03:45:28;12.17;;;6.03;;
74833;SDS011;63361;52.384;20.930;2023-07-08T03:47:53;11.77;;;6.20;;
74833;SDS011;63361;52.384;20.930;2023-07-08T03:50:20;8.53;;;5.33;;
74833;SDS011;63361;52.384;20.930;2023-07-08T03:52:47;10.80;;;5.60;;
74833;SDS011;63361;52.384;20.930;2023-07-08T03:55:12;9.07;;;5.53;;
74833;SDS011;63361;52.384;20.930;2023-07-08T03:57:38;10.87;;;5.70;;
74833;SDS011;63361;52.384;20.930;2023-07-08T04:00:03;12.63;;;6.47;;
74833;SDS011;63361;52.384;20.930;2023-07-08T04:02:28;8.57;;;5.28;;
74833;SDS011;63361;52.384;20.930;2023-07-08T04:04:54;9.37;;;5.10;;
74833;SDS011;63361;52.384;20.930;2023-07-08T04:07:19;8.73;;;4.73;;
74833;SDS011;63361;52.384;20.930;2023-07-08T04:09:44;11.17;;;4.90;;
74833;SDS011;63361;52.384;20.930;2023-07-08T04:12:14;10.23;;;5.40;;
74833;SDS011;63361;52.384;20.930;2023-07-08T04:14:40;8.30;;;5.47;;
74833;SDS011;63361;52.384;20.930;2023-07-08T04:17:07;8.27;;;4.90;;
74833;SDS011;63361;52.384;20.930;2023-07-08T04:19:32;10.43;;;4.97;;
74833;SDS011;63361;52.384;20.930;2023-07-08T04:21:58;7.93;;;5.03;;
74833;SDS011;63361;52.384;20.930;2023-07-08T04:24:23;11.33;;;5.40;;
74833;SDS011;63361;52.384;20.930;2023-07-08T04:26:48;10.97;;;5.17;;
74833;SDS011;63361;52.384;20.930;2023-07-08T04:29:14;8.87;;;5.13;;
74833;SDS011;63361;52.384;20.930;2023-07-08T04:31:40;9.53;;;5.13;;
74833;SDS011;63361;52.384;20.930;2023-07-08T04:34:06;9.80;;;4.97;;
74833;SDS011;63361;52.384;20.930;2023-07-08T04:36:31;11.13;;;5.40;;
74833;SDS011;63361;52.384;20.930;2023-07-08T04:38:56;12.53;;;6.13;;
74833;SDS011;63361;52.384;20.930;2023-07-08T04:41:23;8.77;;;4.55;;
74833;SDS011;63361;52.384;20.930;2023-07-08T04:43:48;9.77;;;5.20;;
74833;SDS011;63361;52.384;20.930;2023-07-08T04:46:19;6.88;;;4.50;;
74833;SDS011;63361;52.384;20.930;2023-07-08T04:48:47;8.07;;;4.75;;
74833;SDS011;63361;52.384;20.930;2023-07-08T04:51:13;7.10;;;4.70;;
74833;SDS011;63361;52.384;20.930;2023-07-08T04:53:38;7.10;;;4.30;;
74833;SDS011;63361;52.384;20.930;2023-07-08T04:56:04;9.60;;;4.60;;
74833;SDS011;63361;52.384;20.930;2023-07-08T04:58:29;7.47;;;4.40;;
74833;SDS011;63361;52.384;20.930;2023-07-08T05:00:54;7.80;;;4.37;;
74833;SDS011;63361;52.384;20.930;2023-07-08T05:03:19;6.77;;;4.57;;
74833;SDS011;63361;52.384;20.930;2023-07-08T05:05:44;9.67;;;5.10;;
74833;SDS011;63361;52.384;20.930;2023-07-08T05:08:11;6.83;;;4.83;;
74833;SDS011;63361;52.384;20.930;2023-07-08T05:10:36;8.63;;;5.40;;
74833;SDS011;63361;52.384;20.930;2023-07-08T05:13:01;8.03;;;5.00;;
74833;SDS011;63361;52.384;20.930;2023-07-08T05:15:27;10.47;;;4.90;;
74833;SDS011;63361;52.384;20.930;2023-07-08T05:17:52;11.23;;;5.50;;
74833;SDS011;63361;52.384;20.930;2023-07-08T05:20:17;11.27;;;5.37;;
74833;SDS011;63361;52.384;20.930;2023-07-08T05:22:43;8.27;;;5.43;;
74833;SDS011;63361;52.384;20.930;2023-07-08T05:25:09;9.77;;;5.27;;
74833;SDS011;63361;52.384;20.930;2023-07-08T05:27:34;10.27;;;5.30;;
74833;SDS011;63361;52.384;20.930;2023-07-08T05:30:00;10.97;;;5.50;;
74833;SDS011;63361;52.384;20.930;2023-07-08T05:32:25;10.27;;;5.07;;
74833;SDS011;63361;52.384;20.930;2023-07-08T05:34:51;9.13;;;5.45;;
74833;SDS011;63361;52.384;20.930;2023-07-08T05:37:16;10.40;;;5.23;;
74833;SDS011;63361;52.384;20.930;2023-07-08T05:39:43;10.68;;;5.47;;
74833;SDS011;63361;52.384;20.930;2023-07-08T05:42:09;8.67;;;5.23;;
74833;SDS011;63361;52.384;20.930;2023-07-08T05:44:34;11.80;;;5.13;;
74833;SDS011;63361;52.384;20.930;2023-07-08T05:46:59;9.63;;;4.63;;
74833;SDS011;63361;52.384;20.930;2023-07-08T05:49:25;7.95;;;4.22;;
74833;SDS011;63361;52.384;20.930;2023-07-08T05:51:50;8.97;;;4.27;;
74833;SDS011;63361;52.384;20.930;2023-07-08T05:54:16;8.50;;;4.15;;
74833;SDS011;63361;52.384;20.930;2023-07-08T05:56:41;10.53;;;4.43;;
74833;SDS011;63361;52.384;20.930;2023-07-08T05:59:06;6.70;;;4.07;;
74833;SDS011;63361;52.384;20.930;2023-07-08T06:01:32;10.60;;;4.47;;
74833;SDS011;63361;52.384;20.930;2023-07-08T06:03:57;8.40;;;4.50;;
74833;SDS011;63361;52.384;20.930;2023-07-08T06:06:26;9.73;;;4.55;;
74833;SDS011;63361;52.384;20.930;2023-07-08T06:08:52;8.90;;;4.40;;
74833;SDS011;63361;52.384;20.930;2023-07-08T06:11:17;12.37;;;4.60;;
74833;SDS011;63361;52.384;20.930;2023-07-08T06:13:43;6.60;;;4.40;;
74833;SDS011;63361;52.384;20.930;2023-07-08T06:16:08;8.17;;;4.20;;
74833;SDS011;63361;52.384;20.930;2023-07-08T06:18:33;8.47;;;4.10;;
74833;SDS011;63361;52.384;20.930;2023-07-08T06:20:58;7.70;;;4.20;;
74833;SDS011;63361;52.384;20.930;2023-07-08T06:23:24;6.80;;;4.40;;
74833;SDS011;63361;52.384;20.930;2023-07-08T06:25:50;5.97;;;3.90;;
74833;SDS011;63361;52.384;20.930;2023-07-08T06:28:15;7.35;;;4.10;;
74833;SDS011;63361;52.384;20.930;2023-07-08T06:30:40;7.63;;;4.23;;
74833;SDS011;63361;52.384;20.930;2023-07-08T06:33:06;8.23;;;3.67;;
74833;SDS011;63361;52.384;20.930;2023-07-08T06:35:31;8.30;;;3.83;;
74833;SDS011;63361;52.384;20.930;2023-07-08T06:37:56;8.23;;;4.03;;
74833;SDS011;63361;52.384;20.930;2023-07-08T06:40:21;8.17;;;3.90;;
74833;SDS011;63361;52.384;20.930;2023-07-08T06:42:47;6.30;;;3.50;;
74833;SDS011;63361;52.384;20.930;2023-07-08T06:45:12;8.57;;;3.33;;
74833;SDS011;63361;52.384;20.930;2023-07-08T06:47:37;6.37;;;3.10;;
74833;SDS011;63361;52.384;20.930;2023-07-08T06:50:02;6.77;;;3.00;;
74833;SDS011;63361;52.384;20.930;2023-07-08T06:52:29;5.57;;;2.70;;
74833;SDS011;63361;52.384;20.930;2023-07-08T06:55:02;9.07;;;2.80;;
74833;SDS011;63361;52.384;20.930;2023-07-08T06:57:27;7.07;;;2.95;;
74833;SDS011;63361;52.384;20.930;2023-07-08T06:59:52;7.03;;;2.60;;
74833;SDS011;63361;52.384;20.930;2023-07-08T07:02:18;4.87;;;2.30;;
74833;SDS011;63361;52.384;20.930;2023-07-08T07:04:44;7.22;;;2.10;;
74833;SDS011;63361;52.384;20.930;2023-07-08T07:07:09;4.60;;;2.50;;
74833;SDS011;63361;52.384;20.930;2023-07-08T07:09:35;5.23;;;2.83;;
74833;SDS011;63361;52.384;20.930;2023-07-08T07:12:00;6.03;;;2.40;;
74833;SDS011;63361;52.384;20.930;2023-07-08T07:14:25;4.63;;;2.43;;
74833;SDS011;63361;52.384;20.930;2023-07-08T07:16:50;9.10;;;2.50;;
74833;SDS011;63361;52.384;20.930;2023-07-08T07:19:16;8.93;;;2.10;;
74833;SDS011;63361;52.384;20.930;2023-07-08T07:21:41;4.97;;;2.20;;
74833;SDS011;63361;52.384;20.930;2023-07-08T07:24:06;5.47;;;2.90;;
74833;SDS011;63361;52.384;20.930;2023-07-08T07:26:32;5.72;;;2.70;;
74833;SDS011;63361;52.384;20.930;2023-07-08T07:28:57;6.80;;;2.70;;
74833;SDS011;63361;52.384;20.930;2023-07-08T07:31:22;5.23;;;2.93;;
74833;SDS011;63361;52.384;20.930;2023-07-08T07:33:47;4.97;;;2.57;;
74833;SDS011;63361;52.384;20.930;2023-07-08T07:36:13;6.80;;;2.40;;
74833;SDS011;63361;52.384;20.930;2023-07-08T07:38:38;4.73;;;2.50;;
74833;SDS011;63361;52.384;20.930;2023-07-08T07:41:03;8.13;;;2.47;;
74833;SDS011;63361;52.384;20.930;2023-07-08T07:43:31;6.50;;;2.60;;
74833;SDS011;63361;52.384;20.930;2023-07-08T07:45:56;5.27;;;2.50;;
74833;SDS011;63361;52.384;20.930;2023-07-08T07:48:21;7.40;;;2.53;;
74833;SDS011;63361;52.384;20.930;2023-07-08T07:50:47;4.30;;;1.73;;
74833;SDS011;63361;52.384;20.930;2023-07-08T07:53:13;4.40;;;1.80;;
74833;SDS011;63361;52.384;20.930;2023-07-08T07:55:38;5.10;;;1.57;;
74833;SDS011;63361;52.384;20.930;2023-07-08T07:58:03;3.97;;;1.77;;
74833;SDS011;63361;52.384;20.930;2023-07-08T08:00:30;4.72;;;1.70;;
74833;SDS011;63361;52.384;20.930;2023-07-08T08:02:55;4.23;;;1.90;;
74833;SDS011;63361;52.384;20.930;2023-07-08T08:05:20;3.17;;;1.60;;
74833;SDS011;63361;52.384;20.930;2023-07-08T08:07:45;5.80;;;2.07;;
74833;SDS011;63361;52.384;20.930;2023-07-08T08:10:12;4.00;;;1.77;;
74833;SDS011;63361;52.384;20.930;2023-07-08T08:12:38;3.50;;;1.60;;
74833;SDS011;63361;52.384;20.930;2023-07-08T08:15:03;4.83;;;1.60;;
74833;SDS011;63361;52.384;20.930;2023-07-08T08:17:28;4.87;;;1.83;;
74833;SDS011;63361;52.384;20.930;2023-07-08T08:19:53;3.93;;;1.80;;
74833;SDS011;63361;52.384;20.930;2023-07-08T08:22:18;3.87;;;1.70;;
74833;SDS011;63361;52.384;20.930;2023-07-08T08:24:46;3.85;;;1.65;;
74833;SDS011;63361;52.384;20.930;2023-07-08T08:27:11;9.97;;;1.83;;
74833;SDS011;63361;52.384;20.930;2023-07-08T08:29:36;4.57;;;1.73;;
74833;SDS011;63361;52.384;20.930;2023-07-08T08:32:01;3.80;;;1.67;;
74833;SDS011;63361;52.384;20.930;2023-07-08T08:34:27;3.73;;;1.73;;
74833;SDS011;63361;52.384;20.930;2023-07-08T08:36:53;5.45;;;1.60;;
74833;SDS011;63361;52.384;20.930;2023-07-08T08:39:20;4.47;;;1.65;;
74833;SDS011;63361;52.384;20.930;2023-07-08T08:41:45;4.07;;;1.70;;
74833;SDS011;63361;52.384;20.930;2023-07-08T08:44:14;4.67;;;1.90;;
74833;SDS011;63361;52.384;20.930;2023-07-08T08:46:54;4.50;;;1.90;;
74833;SDS011;63361;52.384;20.930;2023-07-08T08:49:26;3.67;;;1.90;;
74833;SDS011;63361;52.384;20.930;2023-07-08T08:51:52;4.57;;;2.00;;
74833;SDS011;63361;52.384;20.930;2023-07-08T08:54:17;3.83;;;1.90;;
74833;SDS011;63361;52.384;20.930;2023-07-08T08:56:48;3.60;;;2.13;;
74833;SDS011;63361;52.384;20.930;2023-07-08T08:59:21;7.13;;;1.98;;
74833;SDS011;63361;52.384;20.930;2023-07-08T09:01:48;4.95;;;2.00;;
74833;SDS011;63361;52.384;20.930;2023-07-08T09:04:15;4.57;;;2.13;;
74833;SDS011;63361;52.384;20.930;2023-07-08T09:06:42;5.38;;;1.70;;
74833;SDS011;63361;52.384;20.930;2023-07-08T09:10:10;6.03;;;1.83;;
74833;SDS011;63361;52.384;20.930;2023-07-08T09:12:03;4.57;;;1.90;;
74833;SDS011;63361;52.384;20.930;2023-07-08T09:14:30;4.85;;;1.80;;
74833;SDS011;63361;52.384;20.930;2023-07-08T09:17:00;10.00;;;1.90;;
74833;SDS011;63361;52.384;20.930;2023-07-08T09:19:32;4.85;;;1.70;;
74833;SDS011;63361;52.384;20.930;2023-07-08T09:27:01;4.55;;;2.05;;
74833;SDS011;63361;52.384;20.930;2023-07-08T09:29:26;6.57;;;2.17;;
74833;SDS011;63361;52.384;20.930;2023-07-08T09:31:52;4.73;;;2.00;;
74833;SDS011;63361;52.384;20.930;2023-07-08T09:34:20;5.60;;;2.10;;
74833;SDS011;63361;52.384;20.930;2023-07-08T09:36:47;4.10;;;1.90;;
74833;SDS011;63361;52.384;20.930;2023-07-08T09:39:14;5.65;;;2.25;;
74833;SDS011;63361;52.384;20.930;2023-07-08T09:41:39;4.75;;;2.45;;
74833;SDS011;63361;52.384;20.930;2023-07-08T09:46:43;7.88;;;2.28;;
74833;SDS011;63361;52.384;20.930;2023-07-08T09:51:43;4.20;;;2.00;;
74833;SDS011;63361;52.384;20.930;2023-07-08T09:54:08;5.40;;;2.00;;
74833;SDS011;63361;52.384;20.930;2023-07-08T09:56:34;4.67;;;1.80;;
74833;SDS011;63361;52.384;20.930;2023-07-08T09:59:00;4.55;;;1.88;;
74833;SDS011;63361;52.384;20.930;2023-07-08T10:01:26;5.67;;;1.90;;
74833;SDS011;63361;52.384;20.930;2023-07-08T10:03:57;3.92;;;1.80;;
74833;SDS011;63361;52.384;20.930;2023-07-08T10:06:25;4.47;;;1.92;;
74833;SDS011;63361;52.384;20.930;2023-07-08T10:08:50;6.68;;;1.98;;
74833;SDS011;63361;52.384;20.930;2023-07-08T10:11:38;3.90;;;1.77;;
74833;SDS011;63361;52.384;20.930;2023-07-08T10:14:05;6.67;;;2.40;;
74833;SDS011;63361;52.384;20.930;2023-07-08T10:16:33;11.05;;;1.95;;
74833;SDS011;63361;52.384;20.930;2023-07-08T10:18:59;7.45;;;2.20;;
74833;SDS011;63361;52.384;20.930;2023-07-08T10:21:33;6.83;;;1.80;;
74833;SDS011;63361;52.384;20.930;2023-07-08T10:26:28;5.23;;;1.87;;
74833;SDS011;63361;52.384;20.930;2023-07-08T10:29:00;4.28;;;1.80;;
74833;SDS011;63361;52.384;20.930;2023-07-08T10:34:03;3.23;;;1.77;;
74833;SDS011;63361;52.384;20.930;2023-07-08T10:44:12;5.15;;;2.03;;
74833;SDS011;63361;52.384;20.930;2023-07-08T10:46:50;6.37;;;1.93;;
74833;SDS011;63361;52.384;20.930;2023-07-08T10:49:23;6.68;;;2.10;;
74833;SDS011;63361;52.384;20.930;2023-07-08T10:52:35;4.72;;;2.05;;
74833;SDS011;63361;52.384;20.930;2023-07-08T10:54:44;5.50;;;2.22;;
74833;SDS011;63361;52.384;20.930;2023-07-08T11:02:55;6.20;;;2.00;;
74833;SDS011;63361;52.384;20.930;2023-07-08T11:07:59;4.75;;;1.88;;
74833;SDS011;63361;52.384;20.930;2023-07-08T11:10:48;4.95;;;2.30;;
74833;SDS011;63361;52.384;20.930;2023-07-08T11:13:12;3.63;;;1.93;;
74833;SDS011;63361;52.384;20.930;2023-07-08T11:20:40;4.03;;;1.97;;
74833;SDS011;63361;52.384;20.930;2023-07-08T11:23:19;4.85;;;1.95;;
74833;SDS011;63361;52.384;20.930;2023-07-08T11:25:47;4.43;;;2.15;;
74833;SDS011;63361;52.384;20.930;2023-07-08T11:28:15;5.75;;;1.92;;
74833;SDS011;63361;52.384;20.930;2023-07-08T11:30:42;6.37;;;1.97;;
74833;SDS011;63361;52.384;20.930;2023-07-08T11:33:10;5.38;;;2.10;;
74833;SDS011;63361;52.384;20.930;2023-07-08T11:35:38;5.32;;;2.22;;
74833;SDS011;63361;52.384;20.930;2023-07-08T11:38:04;5.63;;;2.20;;
74833;SDS011;63361;52.384;20.930;2023-07-08T11:40:30;5.37;;;2.20;;
74833;SDS011;63361;52.384;20.930;2023-07-08T11:43:00;4.33;;;2.30;;
74833;SDS011;63361;52.384;20.930;2023-07-08T11:45:38;5.05;;;2.30;;
74833;SDS011;63361;52.384;20.930;2023-07-08T11:48:04;6.68;;;2.17;;
74833;SDS011;63361;52.384;20.930;2023-07-08T11:50:31;4.05;;;1.90;;
74833;SDS011;63361;52.384;20.930;2023-07-08T11:52:58;10.43;;;2.30;;
74833;SDS011;63361;52.384;20.930;2023-07-08T11:55:35;4.60;;;2.30;;
74833;SDS011;63361;52.384;20.930;2023-07-08T11:58:00;5.30;;;2.20;;
74833;SDS011;63361;52.384;20.930;2023-07-08T12:00:27;4.80;;;2.20;;
74833;SDS011;63361;52.384;20.930;2023-07-08T12:02:58;5.22;;;2.25;;
74833;SDS011;63361;52.384;20.930;2023-07-08T12:07:57;5.37;;;2.20;;
74833;SDS011;63361;52.384;20.930;2023-07-08T12:10:32;4.68;;;1.90;;
74833;SDS011;63361;52.384;20.930;2023-07-08T12:13:01;5.95;;;2.47;;
74833;SDS011;63361;52.384;20.930;2023-07-08T12:15:27;4.50;;;2.20;;
74833;SDS011;63361;52.384;20.930;2023-07-08T12:17:54;6.25;;;2.10;;
74833;SDS011;63361;52.384;20.930;2023-07-08T12:20:26;4.13;;;2.25;;
74833;SDS011;63361;52.384;20.930;2023-07-08T12:22:52;6.95;;;2.10;;
74833;SDS011;63361;52.384;20.930;2023-07-08T12:25:18;5.17;;;2.20;;
74833;SDS011;63361;52.384;20.930;2023-07-08T12:27:45;5.82;;;2.20;;
74833;SDS011;63361;52.384;20.930;2023-07-08T12:30:10;4.03;;;2.00;;
74833;SDS011;63361;52.384;20.930;2023-07-08T12:32:36;5.20;;;2.00;;
74833;SDS011;63361;52.384;20.930;2023-07-08T12:35:01;4.13;;;2.17;;
74833;SDS011;63361;52.384;20.930;2023-07-08T12:37:29;4.20;;;1.88;;
74833;SDS011;63361;52.384;20.930;2023-07-08T12:39:56;4.50;;;1.98;;
74833;SDS011;63361;52.384;20.930;2023-07-08T12:42:24;6.13;;;2.13;;
74833;SDS011;63361;52.384;20.930;2023-07-08T12:44:49;6.60;;;2.10;;
74833;SDS011;63361;52.384;20.930;2023-07-08T12:47:16;4.37;;;2.10;;
74833;SDS011;63361;52.384;20.930;2023-07-08T12:49:42;4.50;;;2.10;;
74833;SDS011;63361;52.384;20.930;2023-07-08T12:52:17;4.37;;;2.20;;
74833;SDS011;63361;52.384;20.930;2023-07-08T12:54:43;4.93;;;2.33;;
74833;SDS011;63361;52.384;20.930;2023-07-08T12:57:08;4.80;;;2.07;;
74833;SDS011;63361;52.384;20.930;2023-07-08T12:59:33;5.97;;;2.10;;
74833;SDS011;63361;52.384;20.930;2023-07-08T13:01:59;4.83;;;2.10;;
74833;SDS011;63361;52.384;20.930;2023-07-08T13:04:24;4.57;;;2.23;;
74833;SDS011;63361;52.384;20.930;2023-07-08T13:06:49;4.83;;;2.20;;
74833;SDS011;63361;52.384;20.930;2023-07-08T13:11:58;4.65;;;2.15;;
74833;SDS011;63361;52.384;20.930;2023-07-08T13:14:25;5.17;;;2.20;;
74833;SDS011;63361;52.384;20.930;2023-07-08T13:16:50;7.13;;;2.60;;
74833;SDS011;63361;52.384;20.930;2023-07-08T13:19:16;4.77;;;2.30;;
74833;SDS011;63361;52.384;20.930;2023-07-08T13:21:41;5.32;;;2.15;;
74833;SDS011;63361;52.384;20.930;2023-07-08T13:24:08;4.57;;;2.20;;
74833;SDS011;63361;52.384;20.930;2023-07-08T13:26:34;6.90;;;2.10;;
74833;SDS011;63361;52.384;20.930;2023-07-08T13:29:01;5.13;;;2.13;;
74833;SDS011;63361;52.384;20.930;2023-07-08T13:31:31;7.13;;;2.08;;
74833;SDS011;63361;52.384;20.930;2023-07-08T13:33:57;4.78;;;2.28;;
74833;SDS011;63361;52.384;20.930;2023-07-08T13:36:33;5.40;;;2.30;;
74833;SDS011;63361;52.384;20.930;2023-07-08T13:38:59;5.00;;;2.22;;
74833;SDS011;63361;52.384;20.930;2023-07-08T13:41:25;4.30;;;2.13;;
74833;SDS011;63361;52.384;20.930;2023-07-08T13:43:51;3.70;;;1.90;;
74833;SDS011;63361;52.384;20.930;2023-07-08T13:46:36;7.80;;;2.23;;
74833;SDS011;63361;52.384;20.930;2023-07-08T13:49:02;4.95;;;2.50;;
74833;SDS011;63361;52.384;20.930;2023-07-08T13:51:30;4.97;;;2.00;;
74833;SDS011;63361;52.384;20.930;2023-07-08T13:53:59;5.97;;;2.20;;
74833;SDS011;63361;52.384;20.930;2023-07-08T13:56:28;7.77;;;2.30;;
74833;SDS011;63361;52.384;20.930;2023-07-08T13:59:03;4.70;;;2.30;;
74833;SDS011;63361;52.384;20.930;2023-07-08T14:01:30;5.38;;;2.45;;
74833;SDS011;63361;52.384;20.930;2023-07-08T14:03:55;5.15;;;2.33;;
74833;SDS011;63361;52.384;20.930;2023-07-08T14:06:23;5.90;;;2.40;;
74833;SDS011;63361;52.384;20.930;2023-07-08T14:08:55;4.47;;;2.10;;
74833;SDS011;63361;52.384;20.930;2023-07-08T14:11:21;5.05;;;2.25;;
74833;SDS011;63361;52.384;20.930;2023-07-08T14:13:46;6.13;;;2.20;;
74833;SDS011;63361;52.384;20.930;2023-07-08T14:16:24;4.60;;;2.10;;
74833;SDS011;63361;52.384;20.930;2023-07-08T14:18:50;4.45;;;2.33;;
74833;SDS011;63361;52.384;20.930;2023-07-08T14:21:16;4.83;;;2.53;;
74833;SDS011;63361;52.384;20.930;2023-07-08T14:23:42;6.20;;;2.33;;
74833;SDS011;63361;52.384;20.930;2023-07-08T14:26:09;5.50;;;2.30;;
74833;SDS011;63361;52.384;20.930;2023-07-08T14:28:35;5.63;;;2.40;;
74833;SDS011;63361;52.384;20.930;2023-07-08T14:34:07;7.25;;;2.50;;
74833;SDS011;63361;52.384;20.930;2023-07-08T14:36:32;4.07;;;2.13;;
74833;SDS011;63361;52.384;20.930;2023-07-08T14:38:58;6.10;;;2.20;;
74833;SDS011;63361;52.384;20.930;2023-07-08T14:41:24;6.10;;;2.23;;
74833;SDS011;63361;52.384;20.930;2023-07-08T14:43:49;6.57;;;2.10;;
74833;SDS011;63361;52.384;20.930;2023-07-08T14:46:14;4.30;;;2.30;;
74833;SDS011;63361;52.384;20.930;2023-07-08T14:48:41;4.35;;;2.15;;
74833;SDS011;63361;52.384;20.930;2023-07-08T14:51:07;6.13;;;2.23;;
74833;SDS011;63361;52.384;20.930;2023-07-08T14:53:32;4.75;;;2.30;;
74833;SDS011;63361;52.384;20.930;2023-07-08T14:55:58;5.68;;;2.40;;
74833;SDS011;63361;52.384;20.930;2023-07-08T14:58:25;4.30;;;2.40;;
74833;SDS011;63361;52.384;20.930;2023-07-08T15:00:52;4.72;;;2.08;;
74833;SDS011;63361;52.384;20.930;2023-07-08T15:03:18;8.10;;;2.40;;
74833;SDS011;63361;52.384;20.930;2023-07-08T15:05:43;5.23;;;1.97;;
74833;SDS011;63361;52.384;20.930;2023-07-08T15:08:09;6.55;;;2.05;;
74833;SDS011;63361;52.384;20.930;2023-07-08T15:10:34;7.33;;;2.33;;
74833;SDS011;63361;52.384;20.930;2023-07-08T15:13:00;4.40;;;2.20;;
74833;SDS011;63361;52.384;20.930;2023-07-08T15:15:32;5.13;;;2.58;;